KCOS/COS METAR and TAF weather

Enter ICAO airport designator
Station Type Date Time Source
KCOS METAR 2018/07/16 23:54 UTC NOAA

KCOS 162354Z 16007KT 10SM FEW030 SCT070 BKN150 BKN200 26/14 A3027 RMK AO2 SLP167 OCNL LTGICCG DSNT N CB DSNT MOV N STNRY T02560144 10267 20217 56007


Station Type Date Time Source
KCOS Decoded METAR 2018/07/16 23:54 UTC NOAA

COLORADO SPRINGS MUNI, CO, United States (KCOS) 38-49N 104-43W 1856M
Jul 16, 2018 - 07:54 PM EDT / 2018.07.16 2354 UTC
Wind: from the SSE (160 degrees) at 8 MPH (7 KT):0
Visibility: 10 mile(s):0
Sky conditions: mostly cloudy
Weather: Cumulonimbus clouds, lightning observed
Temperature: 78.1 F (25.6 C)
Dew Point: 57.9 F (14.4 C)
Relative Humidity: 49%
Pressure (altimeter): 30.27 in. Hg (1025 hPa)
Pressure tendency: 0.02 inches (0.7 hPa) lower than three hours ago
ob: KCOS 162354Z 16007KT 10SM FEW030 SCT070 BKN150 BKN200 26/14 A3027 RMK AO2 SLP167 OCNL LTGICCG DSNT N CB DSNT MOV N STNRY T02560144 10267 20217 56007
cycle: 0

Station Type Date Time Source
KCOS TAF 2018/07/16 18:24 UTC NOAA

TAF KCOS 161721Z 1618/1718 14008G18KT P6SM BKN017 BKN060
FM162100 16012KT P6SM VCTS FEW030 SCT060CB
FM170100 14007KT P6SM FEW120 BKN200
FM170600 VRB06KT P6SM FEW120 SCT200
FM171500 12008KT P6SM FEW110 SCT160


Example: see airport list